Terminal Aerodrome Forecast
Issued by NWS

Home | Current Version | Previous Version | Text Only | Print | Product List | Glossary On
Versions: 1 2 3 4 5 6 7 8 9 10 11 12 13 14 15 16 17 18 19 20 21 22
000
FTAK31 PANC 291720
TAFADQ
TAF
PADQ 291720Z 2918/3018 VRB04KT P6SM -RA SCT007 OVC011
      TEMPO 2918/2921 BKN007
     FM292100 05009KT P6SM -SHRA SCT008 OVC015
     FM300300 06006KT P6SM VCSH SCT015 BKN030
     FM301600 09010KT P6SM -RA BKN015=

USA.gov is the U.S. government's official web portal to all federal, state and local government web resources and services.